createdAt,value
2023-05-18T00:00:36.937Z,1.90
2023-05-18T00:03:05.636Z,2.03
2023-05-18T00:05:35.127Z,1.57
2023-05-18T00:08:03.553Z,2.30
2023-05-18T00:10:32.273Z,1.10
2023-05-18T00:13:02.207Z,1.30
2023-05-18T00:15:30.848Z,2.20
2023-05-18T00:17:59.582Z,1.10
2023-05-18T00:20:29.556Z,1.10
2023-05-18T00:22:58.067Z,1.20
2023-05-18T00:25:26.468Z,1.20
2023-05-18T00:27:54.858Z,2.60
2023-05-18T00:30:25.670Z,0.80
2023-05-18T00:32:54.537Z,0.90
2023-05-18T00:35:23.266Z,0.93
2023-05-18T00:37:51.831Z,1.20
2023-05-18T00:40:20.580Z,2.00
2023-05-18T00:42:49.084Z,2.00
2023-05-18T00:45:17.644Z,2.90
2023-05-18T00:47:48.378Z,1.10
2023-05-18T00:50:16.982Z,2.63
2023-05-18T00:52:45.618Z,3.00
2023-05-18T00:55:14.556Z,1.27
2023-05-18T00:57:45.581Z,1.87
2023-05-18T01:00:14.891Z,5.53
2023-05-18T01:02:45.625Z,4.30
2023-05-18T01:05:18.127Z,1.13
2023-05-18T01:07:46.639Z,1.03
2023-05-18T01:10:15.774Z,2.13
2023-05-18T01:12:47.752Z,6.23
2023-05-18T01:15:17.543Z,1.00
2023-05-18T01:17:52.534Z,2.27
2023-05-18T01:20:37.846Z,3.30
2023-05-18T01:23:25.599Z,1.43
2023-05-18T01:26:02.884Z,1.10
2023-05-18T01:28:32.402Z,0.77
2023-05-18T01:31:01.218Z,1.93
2023-05-18T01:33:29.621Z,1.50
2023-05-18T01:35:58.023Z,0.97
2023-05-18T01:38:27.156Z,2.73
2023-05-18T01:40:58.774Z,0.93
2023-05-18T01:43:30.347Z,1.17
2023-05-18T01:45:59.992Z,1.17
2023-05-18T01:48:28.432Z,4.87
2023-05-18T01:50:59.472Z,3.07
2023-05-18T01:53:29.928Z,1.53
2023-05-18T01:55:59.344Z,1.17
2023-05-18T01:58:29.523Z,1.27
2023-05-18T02:00:58.074Z,2.33
2023-05-18T02:03:26.573Z,1.37
2023-05-18T02:05:55.078Z,2.20
2023-05-18T02:08:23.546Z,3.10
2023-05-18T02:10:51.982Z,1.37
2023-05-18T02:13:20.525Z,4.40
2023-05-18T02:15:50.651Z,5.23
2023-05-18T02:18:19.071Z,1.37
2023-05-18T02:20:48.951Z,1.10
2023-05-18T02:23:17.734Z,1.27
2023-05-18T02:25:46.843Z,1.13
2023-05-18T02:28:15.326Z,0.83
2023-05-18T02:30:43.730Z,1.83
2023-05-18T02:33:13.635Z,1.53
2023-05-18T02:35:42.176Z,1.00
2023-05-18T02:38:10.915Z,1.47
2023-05-18T02:40:39.388Z,2.23
2023-05-18T02:43:07.892Z,4.30
2023-05-18T02:45:36.452Z,2.23
2023-05-18T02:48:05.021Z,3.37
2023-05-18T02:50:34.907Z,2.67
2023-05-18T02:53:03.391Z,2.50
2023-05-18T02:55:31.990Z,2.43
2023-05-18T02:58:00.617Z,2.63
2023-05-18T03:00:30.651Z,1.17
2023-05-18T03:03:00.530Z,1.03
2023-05-18T03:05:29.319Z,4.83
2023-05-18T03:07:59.389Z,1.53
2023-05-18T03:10:27.850Z,2.77
2023-05-18T03:12:56.364Z,4.10
2023-05-18T03:15:24.930Z,1.23
2023-05-18T03:17:53.764Z,1.47
2023-05-18T03:20:22.770Z,1.50
2023-05-18T03:22:51.173Z,3.97
2023-05-18T03:25:21.012Z,2.90
2023-05-18T03:27:49.418Z,2.57
2023-05-18T03:30:17.898Z,1.13
2023-05-18T03:32:46.409Z,1.80
2023-05-18T03:35:14.955Z,2.00
2023-05-18T03:37:43.514Z,1.93
2023-05-18T03:40:12.879Z,2.50
2023-05-18T03:42:42.928Z,1.53
2023-05-18T03:45:12.275Z,2.50
2023-05-18T03:47:41.179Z,1.50
2023-05-18T03:50:09.872Z,2.93
2023-05-18T03:52:38.475Z,2.07
2023-05-18T03:55:07.368Z,2.00
2023-05-18T03:57:35.876Z,1.70
2023-05-18T04:00:08.813Z,7.23
2023-05-18T04:02:37.557Z,4.83
2023-05-18T04:05:06.416Z,3.23
2023-05-18T04:07:43.775Z,2.13
2023-05-18T04:10:12.951Z,2.77
2023-05-18T04:12:41.813Z,2.97
2023-05-18T04:15:14.496Z,4.00
2023-05-18T04:17:45.964Z,5.07
2023-05-18T04:20:15.455Z,2.77
2023-05-18T04:22:48.366Z,1.60
2023-05-18T04:25:17.510Z,2.07
2023-05-18T04:27:47.790Z,3.20
2023-05-18T04:30:19.122Z,2.43
2023-05-18T04:32:48.190Z,3.00
2023-05-18T04:35:16.873Z,2.67
2023-05-18T04:37:45.318Z,3.47
2023-05-18T04:40:14.383Z,4.40
2023-05-18T04:42:45.772Z,4.10
2023-05-18T04:45:17.708Z,3.70
2023-05-18T04:47:53.254Z,6.80
2023-05-18T04:50:23.607Z,2.60
2023-05-18T04:52:52.656Z,2.50
2023-05-18T04:55:26.372Z,3.33
2023-05-18T04:57:56.626Z,1.93
2023-05-18T05:00:26.290Z,5.17
2023-05-18T05:02:56.687Z,5.43
2023-05-18T05:05:25.870Z,3.73
2023-05-18T05:07:54.629Z,3.73
2023-05-18T05:10:23.147Z,2.37
2023-05-18T05:12:51.908Z,1.80
2023-05-18T05:15:20.502Z,1.70
2023-05-18T05:17:49.022Z,2.47
2023-05-18T05:20:19.122Z,3.37
2023-05-18T05:22:47.721Z,4.07
2023-05-18T05:25:16.285Z,4.60
2023-05-18T05:27:44.757Z,5.50
2023-05-18T05:30:13.496Z,2.87
2023-05-18T05:32:41.919Z,2.77
2023-05-18T05:35:10.793Z,3.97
2023-05-18T05:37:40.670Z,3.50
2023-05-18T05:40:09.988Z,2.03
2023-05-18T05:42:38.665Z,3.20
2023-05-18T05:45:07.794Z,4.73
2023-05-18T05:47:36.305Z,4.43
2023-05-18T05:50:04.830Z,3.27
2023-05-18T05:52:33.213Z,4.13
2023-05-18T05:55:03.014Z,4.97
2023-05-18T05:57:31.394Z,3.70
2023-05-18T05:59:59.838Z,6.10
2023-05-18T06:02:28.469Z,3.87
2023-05-18T06:04:56.947Z,5.23
2023-05-18T06:07:25.367Z,2.73
2023-05-18T06:09:53.761Z,5.47
2023-05-18T06:12:23.564Z,11.03
2023-05-18T06:14:54.309Z,4.60
2023-05-18T06:17:22.675Z,2.87
2023-05-18T06:19:51.125Z,5.07
2023-05-18T06:22:19.578Z,2.67
2023-05-18T06:24:48.224Z,4.50
2023-05-18T06:27:16.928Z,3.20
2023-05-18T06:29:46.710Z,5.07
2023-05-18T06:32:15.312Z,13.20
2023-05-18T06:34:45.796Z,5.17
2023-05-18T06:37:14.394Z,3.63
2023-05-18T06:39:42.834Z,3.20
2023-05-18T06:42:11.357Z,2.73
2023-05-18T06:44:39.867Z,4.07
2023-05-18T06:47:09.950Z,3.53
2023-05-18T06:49:38.367Z,5.00
2023-05-18T06:52:07.872Z,3.13
2023-05-18T06:54:36.333Z,4.63
2023-05-18T06:57:04.791Z,4.80
2023-05-18T06:59:34.680Z,3.67
2023-05-18T07:02:03.998Z,3.87
2023-05-18T07:04:34.056Z,4.17
2023-05-18T07:07:02.594Z,6.97
2023-05-18T07:09:31.046Z,6.83
2023-05-18T07:11:59.455Z,7.30
2023-05-18T07:14:27.947Z,4.50
2023-05-18T07:16:56.399Z,7.47
2023-05-18T07:19:24.968Z,5.50
2023-05-18T07:21:54.842Z,5.23
2023-05-18T07:24:23.291Z,5.00
2023-05-18T07:26:51.754Z,6.43
2023-05-18T07:29:20.157Z,6.83
2023-05-18T07:31:48.683Z,5.80
2023-05-18T07:34:17.212Z,6.03
2023-05-18T07:36:45.647Z,5.23
2023-05-18T07:39:19.484Z,3.10
2023-05-18T07:41:48.521Z,5.17
2023-05-18T07:44:17.135Z,3.80
2023-05-18T07:46:45.692Z,5.00
2023-05-18T07:49:14.232Z,2.77
2023-05-18T07:51:42.807Z,2.53
2023-05-18T07:54:11.331Z,24.67
2023-05-18T07:56:41.277Z,4.47
2023-05-18T07:59:09.901Z,4.53
2023-05-18T08:01:40.042Z,4.27
2023-05-18T08:04:08.684Z,6.07
2023-05-18T08:06:37.705Z,6.57
2023-05-18T08:09:06.692Z,7.60
2023-05-18T08:11:35.315Z,3.60
2023-05-18T08:14:05.408Z,3.53
2023-05-18T08:16:37.279Z,11.20
2023-05-18T08:19:06.213Z,7.37
2023-05-18T08:21:34.709Z,3.20
2023-05-18T08:24:04.198Z,5.00
2023-05-18T08:26:32.654Z,3.37
2023-05-18T08:29:01.085Z,3.27
2023-05-18T08:31:30.939Z,3.50
2023-05-18T08:33:59.620Z,3.10
2023-05-18T08:36:28.096Z,4.37
2023-05-18T08:38:56.594Z,3.90
2023-05-18T08:41:28.043Z,5.77
2023-05-18T08:44:01.233Z,4.77
2023-05-18T08:46:34.528Z,3.47
2023-05-18T08:49:03.782Z,3.37
2023-05-18T08:51:35.485Z,4.67
2023-05-18T08:54:05.189Z,2.53
2023-05-18T08:56:34.791Z,3.20
2023-05-18T08:59:07.951Z,5.00
2023-05-18T09:01:38.816Z,5.13
2023-05-18T09:04:07.784Z,4.70
2023-05-18T09:06:36.844Z,5.27
2023-05-18T09:09:06.563Z,1.83
2023-05-18T09:11:36.013Z,3.10
2023-05-18T09:14:04.622Z,5.83
2023-05-18T09:16:33.320Z,5.10
2023-05-18T09:19:03.407Z,4.90
2023-05-18T09:21:33.403Z,4.17
2023-05-18T09:24:01.887Z,4.50
2023-05-18T09:26:30.494Z,4.17
2023-05-18T09:28:59.519Z,2.27
2023-05-18T09:31:28.192Z,4.10
2023-05-18T09:33:56.728Z,2.77
2023-05-18T09:36:30.490Z,1.77
2023-05-18T09:38:58.979Z,1.93
2023-05-18T09:41:28.131Z,7.20
2023-05-18T09:43:56.631Z,1.47
2023-05-18T09:46:25.208Z,6.90
2023-05-18T09:48:54.922Z,1.83
2023-05-18T09:51:25.556Z,1.50
2023-05-18T09:53:57.209Z,3.20
2023-05-18T09:56:27.026Z,5.00
2023-05-18T09:58:56.152Z,1.40
2023-05-18T10:01:24.698Z,3.87
2023-05-18T10:03:53.490Z,3.00
2023-05-18T10:06:22.548Z,1.53
2023-05-18T10:08:51.014Z,4.77
2023-05-18T10:11:22.054Z,2.80
2023-05-18T10:13:56.008Z,4.73
2023-05-18T10:16:25.784Z,2.50
2023-05-18T10:18:56.282Z,1.53
2023-05-18T10:21:26.182Z,1.43
2023-05-18T10:23:54.680Z,1.43
2023-05-18T10:26:25.437Z,2.67
2023-05-18T10:28:55.192Z,1.30
2023-05-18T10:31:24.749Z,1.37
2023-05-18T10:33:53.909Z,1.40
2023-05-18T10:36:25.581Z,1.50
2023-05-18T10:38:54.139Z,1.43
2023-05-18T10:41:23.586Z,1.23
2023-05-18T10:43:54.715Z,2.63
2023-05-18T10:46:26.773Z,2.73
2023-05-18T10:48:55.858Z,2.23
2023-05-18T10:51:25.023Z,3.83
2023-05-18T10:53:56.060Z,0.93
2023-05-18T10:56:26.219Z,1.47
2023-05-18T10:58:57.029Z,1.77
2023-05-18T11:01:25.589Z,0.80
2023-05-18T11:03:54.065Z,1.10
2023-05-18T11:06:25.845Z,0.80
2023-05-18T11:08:54.602Z,1.27
2023-05-18T11:11:26.439Z,1.17
2023-05-18T11:13:56.233Z,0.97
2023-05-18T11:16:34.281Z,1.10
2023-05-18T11:19:07.310Z,1.40
2023-05-18T11:21:56.549Z,1.57
2023-05-18T11:24:26.231Z,2.67
2023-05-18T11:26:55.561Z,0.80
2023-05-18T11:29:26.661Z,2.93
2023-05-18T11:31:55.706Z,1.43
2023-05-18T11:34:39.473Z,0.97
2023-05-18T11:37:10.223Z,2.13
2023-05-18T11:39:47.888Z,1.90
2023-05-18T11:42:24.909Z,0.77
2023-05-18T11:44:57.440Z,1.27
2023-05-18T11:47:32.072Z,2.47
2023-05-18T11:50:00.774Z,1.23
2023-05-18T11:52:29.338Z,1.40
2023-05-18T11:54:58.614Z,0.83
2023-05-18T11:57:27.527Z,1.57
2023-05-18T11:59:58.263Z,2.43
2023-05-18T12:02:27.755Z,0.90
2023-05-18T12:04:56.979Z,4.97
2023-05-18T12:07:26.227Z,2.63
2023-05-18T12:09:54.657Z,2.27
2023-05-18T12:12:24.464Z,1.53
2023-05-18T12:14:55.960Z,1.10
2023-05-18T12:17:25.864Z,0.80
2023-05-18T12:19:54.431Z,2.93
2023-05-18T12:22:22.911Z,1.07
2023-05-18T12:24:53.858Z,1.03
2023-05-18T12:27:26.518Z,1.30
2023-05-18T12:29:55.108Z,0.90
2023-05-18T12:32:23.657Z,0.97
2023-05-18T12:34:53.585Z,0.63
2023-05-18T12:37:33.774Z,0.77
2023-05-18T12:40:02.907Z,1.77
2023-05-18T12:42:31.392Z,1.33
2023-05-18T12:44:59.869Z,2.13
2023-05-18T12:47:29.148Z,1.00
2023-05-18T12:49:58.965Z,0.77
2023-05-18T12:52:27.735Z,2.20
2023-05-18T12:54:59.842Z,0.90
2023-05-18T12:57:31.051Z,4.23
2023-05-18T13:00:00.303Z,2.00
2023-05-18T13:02:33.021Z,0.90
2023-05-18T13:05:11.063Z,2.03
2023-05-18T13:07:40.820Z,2.40
2023-05-18T13:10:13.061Z,1.10
2023-05-18T13:12:45.374Z,2.07
2023-05-18T13:15:14.711Z,1.43
2023-05-18T13:17:50.615Z,1.57
2023-05-18T13:20:20.700Z,3.07
2023-05-18T13:22:51.490Z,1.17
2023-05-18T13:25:20.143Z,0.97
2023-05-18T13:27:49.655Z,0.90
2023-05-18T13:30:18.299Z,2.03
2023-05-18T13:32:46.809Z,2.17
2023-05-18T13:35:15.313Z,0.80
2023-05-18T13:37:46.866Z,0.93
2023-05-18T13:40:15.424Z,4.13
2023-05-18T13:42:44.154Z,2.13
2023-05-18T13:45:14.452Z,3.20
2023-05-18T13:47:45.885Z,0.93
2023-05-18T13:50:14.545Z,1.53
2023-05-18T13:52:43.006Z,1.33
2023-05-18T13:55:12.809Z,0.77
2023-05-18T13:57:41.295Z,1.13
2023-05-18T14:00:13.182Z,1.77
2023-05-18T14:02:41.832Z,1.03
2023-05-18T14:05:11.027Z,1.40
2023-05-18T14:07:39.890Z,0.70
2023-05-18T14:10:09.364Z,2.10
2023-05-18T14:12:39.283Z,1.03
2023-05-18T14:15:08.292Z,2.03
2023-05-18T14:17:36.781Z,5.20
2023-05-18T14:20:06.603Z,3.17
2023-05-18T14:22:35.332Z,1.77
2023-05-18T14:25:03.800Z,2.07
2023-05-18T14:27:32.266Z,1.87
2023-05-18T14:30:02.376Z,2.90
2023-05-18T14:32:31.186Z,2.80
2023-05-18T14:34:59.717Z,2.33
2023-05-18T14:37:28.180Z,4.23
2023-05-18T14:39:56.743Z,6.37
2023-05-18T14:42:25.165Z,1.43
2023-05-18T14:44:53.559Z,2.70
2023-05-18T14:47:23.418Z,1.83
2023-05-18T14:49:51.908Z,1.53
2023-05-18T14:52:20.355Z,5.87
2023-05-18T14:54:48.874Z,4.40
2023-05-18T14:57:17.351Z,1.40
2023-05-18T14:59:45.847Z,2.30
2023-05-18T15:02:14.469Z,4.33
2023-05-18T15:04:44.421Z,2.27
2023-05-18T15:07:12.854Z,1.70
2023-05-18T15:09:41.338Z,3.07
2023-05-18T15:12:09.981Z,0.87
2023-05-18T15:14:39.061Z,4.40
2023-05-18T15:17:08.617Z,3.17
2023-05-18T15:19:37.168Z,2.40
2023-05-18T15:22:07.075Z,2.17
2023-05-18T15:24:35.480Z,1.73
2023-05-18T15:27:04.265Z,1.53
2023-05-18T15:29:32.749Z,1.90
2023-05-18T15:32:01.319Z,12.00
2023-05-18T15:34:29.876Z,1.73
2023-05-18T15:36:58.368Z,2.47
2023-05-18T15:39:28.186Z,0.80
2023-05-18T15:41:56.649Z,2.80
2023-05-18T15:44:25.577Z,1.63
2023-05-18T15:46:54.935Z,1.10
2023-05-18T15:49:25.364Z,3.37
2023-05-18T15:51:53.805Z,2.40
2023-05-18T15:54:22.212Z,1.20
2023-05-18T15:56:51.993Z,2.60
2023-05-18T15:59:20.422Z,1.87
2023-05-18T16:01:49.078Z,1.40
2023-05-18T16:04:17.554Z,1.23
2023-05-18T16:06:46.063Z,6.00
2023-05-18T16:09:14.635Z,1.37
2023-05-18T16:11:43.092Z,3.07
2023-05-18T16:14:12.938Z,1.90
2023-05-18T16:16:41.520Z,1.47
2023-05-18T16:19:10.107Z,2.97
2023-05-18T16:21:38.960Z,4.33
2023-05-18T16:24:07.936Z,1.60
2023-05-18T16:26:39.136Z,3.03
2023-05-18T16:29:08.369Z,4.20
2023-05-18T16:31:38.255Z,1.40
2023-05-18T16:34:06.698Z,5.53
2023-05-18T16:36:36.626Z,258.23
2023-05-18T16:39:05.190Z,4.77
2023-05-18T16:41:33.647Z,3.37
2023-05-18T16:44:02.132Z,3.40
2023-05-18T16:46:30.715Z,1.63
2023-05-18T16:49:00.747Z,1.20
2023-05-18T16:51:29.270Z,3.50
2023-05-18T16:53:57.672Z,2.73
2023-05-18T16:56:27.065Z,4.33
2023-05-18T16:58:55.564Z,4.30
2023-05-18T17:01:28.434Z,1.23
2023-05-18T17:03:57.439Z,1.23
2023-05-18T17:06:27.587Z,1.73
2023-05-18T17:08:58.661Z,2.77
2023-05-18T17:11:27.811Z,2.37
2023-05-18T17:13:57.629Z,2.17
2023-05-18T17:16:27.260Z,3.80
2023-05-18T17:18:57.729Z,4.67
2023-05-18T17:21:28.435Z,2.03
2023-05-18T17:23:57.084Z,1.00
2023-05-18T17:26:30.510Z,4.50
2023-05-18T17:28:59.302Z,1.33
2023-05-18T17:31:28.557Z,2.20
2023-05-18T17:33:57.026Z,2.87
2023-05-18T17:36:25.654Z,1.50
2023-05-18T17:38:56.268Z,3.70
2023-05-18T17:41:25.764Z,2.83
2023-05-18T17:43:54.487Z,1.27
2023-05-18T17:46:22.938Z,3.30
2023-05-18T17:48:51.442Z,3.80
2023-05-18T17:51:19.881Z,4.50
2023-05-18T17:53:48.264Z,2.90
2023-05-18T17:56:18.193Z,2.80
2023-05-18T17:58:46.709Z,1.23
2023-05-18T18:01:15.226Z,34.80
2023-05-18T18:03:44.520Z,5.50
2023-05-18T18:06:13.104Z,1.77
2023-05-18T18:08:41.600Z,1.47
2023-05-18T18:11:10.301Z,2.47
2023-05-18T18:13:40.055Z,1.00
2023-05-18T18:16:08.481Z,2.40
2023-05-18T18:18:38.112Z,1.33
2023-05-18T18:21:07.028Z,1.03
2023-05-18T18:23:35.789Z,1.00
2023-05-18T18:26:04.621Z,1.23
2023-05-18T18:28:33.029Z,1.87
2023-05-18T18:31:03.521Z,1.80
2023-05-18T18:33:32.825Z,1.57
2023-05-18T18:36:02.277Z,0.90
2023-05-18T18:38:31.198Z,1.50
2023-05-18T18:41:01.708Z,1.27
2023-05-18T18:43:30.568Z,2.80
2023-05-18T18:45:59.186Z,1.40
2023-05-18T18:48:29.264Z,0.97
2023-05-18T18:50:57.911Z,2.23
2023-05-18T18:53:26.494Z,1.43
2023-05-18T18:55:56.608Z,4.17
2023-05-18T18:58:24.994Z,15.10
2023-05-18T19:00:53.489Z,22.17
2023-05-18T19:03:22.676Z,12.10
2023-05-18T19:05:52.761Z,10.23
2023-05-18T19:08:21.430Z,9.07
2023-05-18T19:10:49.864Z,5.70
2023-05-18T19:13:18.228Z,674.83
2023-05-18T19:15:47.270Z,310.77
2023-05-18T19:18:16.028Z,58.70
2023-05-18T19:20:44.483Z,135.40
2023-05-18T19:23:14.305Z,383.43
2023-05-18T19:25:42.773Z,623.87
2023-05-18T19:28:13.510Z,452.27
2023-05-18T19:30:42.103Z,140.67
2023-05-18T19:33:10.868Z,29.63
2023-05-18T19:35:39.602Z,4.37
2023-05-18T19:38:08.059Z,2.17
2023-05-18T19:40:38.240Z,1.77
2023-05-18T19:43:06.718Z,2.50
2023-05-18T19:45:35.439Z,2.83
2023-05-18T19:48:04.443Z,4.87
2023-05-18T19:50:33.039Z,3.10
2023-05-18T19:53:01.480Z,2.20
2023-05-18T19:55:31.152Z,1.50
2023-05-18T19:58:01.132Z,2.97
2023-05-18T20:00:29.711Z,4.03
2023-05-18T20:02:58.590Z,3.37
2023-05-18T20:05:27.974Z,4.57
2023-05-18T20:07:58.133Z,2.13
2023-05-18T20:10:26.994Z,3.30
2023-05-18T20:12:55.944Z,2.17
2023-05-18T20:15:26.538Z,1.43
2023-05-18T20:17:55.022Z,1.67
2023-05-18T20:20:23.613Z,3.67
2023-05-18T20:22:52.127Z,2.67
2023-05-18T20:25:20.614Z,2.87
2023-05-18T20:27:49.136Z,2.37
2023-05-18T20:30:17.676Z,2.33
2023-05-18T20:32:47.797Z,2.03
2023-05-18T20:35:17.069Z,2.20
2023-05-18T20:37:45.668Z,2.20
2023-05-18T20:40:14.213Z,2.00
2023-05-18T20:42:42.682Z,2.03
2023-05-18T20:45:12.341Z,1.60
2023-05-18T20:47:42.269Z,3.83
2023-05-18T20:50:13.605Z,1.67
2023-05-18T20:52:42.072Z,2.00
2023-05-18T20:55:11.709Z,2.90
2023-05-18T20:57:40.660Z,2.83
2023-05-18T21:00:10.644Z,6.20
2023-05-18T21:02:39.243Z,4.63
2023-05-18T21:05:08.189Z,5.53
2023-05-18T21:07:40.008Z,2.47
2023-05-18T21:10:09.229Z,29.50
2023-05-18T21:12:37.903Z,4.70
2023-05-18T21:15:07.004Z,4.40
2023-05-18T21:17:35.561Z,5.37
2023-05-18T21:20:05.042Z,4.50
2023-05-18T21:22:33.552Z,3.47
2023-05-18T21:25:06.179Z,3.67
2023-05-18T21:27:34.634Z,5.10
2023-05-18T21:30:03.144Z,3.20
2023-05-18T21:32:32.108Z,4.53
2023-05-18T21:35:00.770Z,3.57
2023-05-18T21:37:29.274Z,3.13
2023-05-18T21:39:57.742Z,4.07
2023-05-18T21:42:27.966Z,10.07
2023-05-18T21:44:56.413Z,2.13
2023-05-18T21:47:24.901Z,4.70
2023-05-18T21:49:53.590Z,3.27
2023-05-18T21:52:22.067Z,5.30
2023-05-18T21:54:50.604Z,3.90
2023-05-18T21:57:19.214Z,2.07
2023-05-18T21:59:49.263Z,4.07
2023-05-18T22:02:17.725Z,2.50
2023-05-18T22:04:46.194Z,5.20
2023-05-18T22:07:14.625Z,1.70
2023-05-18T22:09:43.043Z,2.90
2023-05-18T22:12:11.541Z,2.37
2023-05-18T22:14:40.068Z,2.10
2023-05-18T22:17:09.904Z,2.20
2023-05-18T22:19:38.359Z,1.50
2023-05-18T22:22:09.722Z,2.63
2023-05-18T22:24:44.976Z,1.97
2023-05-18T22:27:13.653Z,3.80
2023-05-18T22:29:42.180Z,2.43
2023-05-18T22:32:12.291Z,3.40
2023-05-18T22:34:40.727Z,1.93
2023-05-18T22:37:09.164Z,1.53
2023-05-18T22:39:37.587Z,5.83
2023-05-18T22:42:06.159Z,3.10
2023-05-18T22:44:34.554Z,3.43
2023-05-18T22:47:03.116Z,2.17
2023-05-18T22:49:35.925Z,3.83
2023-05-18T22:52:05.279Z,2.20
2023-05-18T22:54:33.717Z,1.97
2023-05-18T22:57:02.112Z,2.03
2023-05-18T22:59:30.532Z,3.00
2023-05-18T23:01:58.987Z,2.10
2023-05-18T23:04:27.602Z,2.57
2023-05-18T23:06:57.995Z,1.80
2023-05-18T23:09:27.173Z,1.93
2023-05-18T23:11:55.857Z,1.77
2023-05-18T23:14:24.328Z,1.87
2023-05-18T23:16:53.614Z,2.50
2023-05-18T23:19:23.824Z,1.90
2023-05-18T23:21:52.345Z,1.87
2023-05-18T23:24:22.245Z,2.63
2023-05-18T23:26:50.983Z,2.00
2023-05-18T23:29:19.484Z,1.93
2023-05-18T23:31:47.908Z,1.30
2023-05-18T23:34:16.659Z,1.60
2023-05-18T23:36:46.804Z,4.33
2023-05-18T23:39:15.500Z,2.67
2023-05-18T23:41:45.835Z,1.70
2023-05-18T23:44:14.594Z,2.27
2023-05-18T23:46:43.299Z,3.80
2023-05-18T23:49:12.066Z,1.50
2023-05-18T23:51:40.744Z,1.90
2023-05-18T23:54:09.936Z,2.17
2023-05-18T23:56:38.524Z,1.60
2023-05-18T23:59:08.505Z,3.63
